Time;durP1;ratioP1;P1;durP2;ratioP2;P2;SDS_P1;SDS_P2;PMS_P1;PMS_P2;Temp;Humidity;BMP_temperature;BMP_pressure;BME280_temperature;BME280_humidity;BME280_pressure;Samples;Min_cycle;Max_cycle;Signal;HPM_P1;HPM_P2
2021/06/07 00:02:09;;;;;;;19.07;13.23;;;16.80;99.80;;;;;;6244709;23;20433;-89
2021/06/07 00:04:36;;;;;;;19.37;13.60;;;16.80;99.80;;;;;;6245999;23;20429;-88
2021/06/07 00:07:08;;;;;;;19.37;13.60;;;16.80;99.80;;;;;;6245863;23;20485;-87
2021/06/07 00:09:36;;;;;;;20.07;12.80;;;16.70;99.80;;;;;;6245518;22;20817;-88
2021/06/07 00:12:08;;;;;;;16.37;12.60;;;16.70;99.80;;;;;;6246235;23;20440;-90
2021/06/07 00:14:36;;;;;;;20.37;13.30;;;16.70;99.80;;;;;;6245010;23;20413;-88
2021/06/07 00:17:05;;;;;;;18.70;12.93;;;16.60;99.80;;;;;;6245527;23;20424;-88
2021/06/07 00:19:35;;;;;;;20.20;14.20;;;16.70;99.80;;;;;;6244917;22;20960;-88
2021/06/07 00:22:03;;;;;;;22.97;14.90;;;16.70;99.80;;;;;;6244558;23;20940;-89
2021/06/07 00:24:32;;;;;;;19.30;15.13;;;16.70;99.80;;;;;;6245359;23;20424;-87
2021/06/07 00:27:00;;;;;;;20.73;13.27;;;16.60;99.80;;;;;;6245749;23;20393;-90
2021/06/07 00:29:30;;;;;;;22.83;14.57;;;16.60;99.80;;;;;;6244598;22;20499;-87
2021/06/07 00:31:57;;;;;;;20.27;14.67;;;16.60;99.80;;;;;;6245849;23;20602;-88
2021/06/07 00:34:25;;;;;;;21.37;13.60;;;16.50;99.80;;;;;;6245987;23;20412;-90
2021/06/07 00:36:53;;;;;;;23.23;14.63;;;;;;;;;;6246152;23;20413;-88
2021/06/07 00:39:20;;;;;;;22.27;15.00;;;16.50;99.80;;;;;;6245022;23;20908;-89
2021/06/07 00:41:50;;;;;;;23.47;14.60;;;16.60;99.80;;;;;;6244938;22;20427;-88
2021/06/07 00:44:20;;;;;;;19.20;14.90;;;16.50;99.80;;;;;;6245580;23;20996;-90
2021/06/07 00:46:48;;;;;;;23.47;13.63;;;16.50;99.80;;;;;;6243847;23;20418;-88
2021/06/07 00:49:16;;;;;;;25.10;15.37;;;16.50;99.80;;;;;;6245100;23;20399;-88
2021/06/07 00:51:45;;;;;;;20.97;14.97;;;16.50;99.80;;;;;;6201609;22;20437;-88
2021/06/07 00:54:14;;;;;;;23.27;14.97;;;16.50;99.80;;;;;;6241057;23;20427;-90
2021/06/07 00:56:42;;;;;;;21.90;14.50;;;16.40;99.80;;;;;;6242648;23;20759;-88
2021/06/07 00:59:11;;;;;;;26.20;15.57;;;16.40;99.80;;;;;;6240229;23;20439;-87
2021/06/07 01:01:40;;;;;;;18.90;13.27;;;16.40;99.80;;;;;;6236303;22;20451;-88
2021/06/07 01:04:08;;;;;;;19.50;14.50;;;16.40;99.80;;;;;;6237063;23;20436;-89
2021/06/07 01:06:36;;;;;;;20.60;14.47;;;16.30;99.80;;;;;;6225323;23;20432;-88
2021/06/07 01:09:05;;;;;;;22.03;15.07;;;16.20;99.80;;;;;;6184204;23;20498;-88
2021/06/07 01:11:32;;;;;;;23.23;14.93;;;16.20;99.80;;;;;;6179433;23;20448;-88
2021/06/07 01:14:00;;;;;;;22.17;14.80;;;16.20;99.80;;;;;;6224479;23;20440;-88
2021/06/07 01:16:29;;;;;;;21.20;13.90;;;16.20;99.80;;;;;;6219346;23;20910;-88
2021/06/07 01:18:57;;;;;;;21.73;14.70;;;16.20;99.80;;;;;;6221761;23;20440;-88
2021/06/07 01:21:27;;;;;;;22.10;14.13;;;16.20;99.80;;;;;;6230847;22;20449;-88
2021/06/07 01:23:56;;;;;;;19.30;13.77;;;16.20;99.80;;;;;;6236201;23;20438;-87
2021/06/07 01:26:26;;;;;;;17.47;12.30;;;16.10;99.80;;;;;;6233818;23;20435;-88
2021/06/07 01:28:54;;;;;;;19.53;14.33;;;16.10;99.80;;;;;;6234026;23;20440;-88
2021/06/07 01:31:22;;;;;;;20.47;13.90;;;16.10;99.80;;;;;;6222884;22;20447;-88
2021/06/07 01:33:52;;;;;;;22.80;15.10;;;16.10;99.80;;;;;;6228972;23;20765;-88
2021/06/07 01:36:19;;;;;;;19.13;13.43;;;16.10;99.80;;;;;;6200534;22;20755;-88
2021/06/07 01:38:48;;;;;;;20.20;14.00;;;16.10;99.80;;;;;;6195709;22;20913;-87
2021/06/07 01:41:18;;;;;;;18.03;13.60;;;16.10;99.80;;;;;;6196641;22;21100;-88
2021/06/07 01:43:46;;;;;;;20.43;12.93;;;16.10;99.80;;;;;;6203038;22;20441;-88
2021/06/07 01:46:14;;;;;;;25.93;14.40;;;16.10;99.80;;;;;;6193768;22;20439;-87
2021/06/07 01:48:42;;;;;;;19.30;14.90;;;16.10;99.80;;;;;;6199205;22;20460;-87
2021/06/07 01:51:10;;;;;;;22.57;13.80;;;16.10;99.80;;;;;;6203090;22;20433;-88
2021/06/07 01:53:40;;;;;;;19.10;13.60;;;16.10;99.80;;;;;;6204981;22;20441;-88
2021/06/07 01:56:09;;;;;;;17.43;12.43;;;16.10;99.80;;;;;;6206478;22;20437;-88
2021/06/07 01:58:39;;;;;;;20.27;13.53;;;16.10;99.80;;;;;;6193511;22;20429;-88
2021/06/07 02:01:09;;;;;;;19.63;13.40;;;16.00;99.80;;;;;;6212077;22;20448;-90
2021/06/07 02:03:37;;;;;;;20.77;13.67;;;16.00;99.80;;;;;;6218338;23;20438;-88
2021/06/07 02:06:08;;;;;;;20.60;13.13;;;16.00;99.80;;;;;;6213365;23;20396;-88
2021/06/07 02:08:35;;;;;;;19.40;13.87;;;16.00;99.80;;;;;;6214539;23;20397;-87
2021/06/07 02:11:07;;;;;;;21.40;14.80;;;16.00;99.80;;;;;;6214040;23;20509;-89
2021/06/07 02:13:34;;;;;;;22.27;13.93;;;16.00;99.80;;;;;;6213481;23;20378;-88
2021/06/07 02:16:06;;;;;;;23.40;14.90;;;16.00;99.80;;;;;;6213788;23;20403;-89
2021/06/07 02:18:35;;;;;;;25.90;15.10;;;16.00;99.80;;;;;;6187551;22;20421;-88
2021/06/07 02:21:03;;;;;;;26.50;14.57;;;16.00;99.80;;;;;;6214692;22;20437;-89
2021/06/07 02:23:31;;;;;;;21.90;15.37;;;16.00;99.80;;;;;;6214249;23;20437;-88
2021/06/07 02:25:59;;;;;;;25.80;14.83;;;16.00;99.80;;;;;;6226844;23;20436;-88
2021/06/07 02:28:27;;;;;;;21.03;14.33;;;16.00;99.80;;;;;;6228567;23;20964;-88
2021/06/07 02:30:55;;;;;;;25.40;14.80;;;16.00;99.80;;;;;;6230328;22;20435;-88
2021/06/07 02:33:23;;;;;;;24.97;15.93;;;16.00;99.80;;;;;;6228610;23;20436;-89
2021/06/07 02:35:51;;;;;;;17.93;13.30;;;16.00;99.80;;;;;;6236634;23;20433;-87
2021/06/07 02:38:19;;;;;;;24.73;14.97;;;16.00;99.80;;;;;;6239547;23;20970;-88
2021/06/07 02:40:49;;;;;;;24.20;15.00;;;16.00;99.80;;;;;;6236571;22;20443;-89
2021/06/07 02:43:17;;;;;;;24.20;14.63;;;15.90;99.80;;;;;;6229074;23;20440;-88
2021/06/07 02:45:45;;;;;;;21.53;13.90;;;16.00;99.80;;;;;;6227172;23;20423;-89
2021/06/07 02:48:13;;;;;;;22.40;14.90;;;15.90;99.80;;;;;;6223035;23;20440;-88
2021/06/07 02:50:44;;;;;;;20.17;13.80;;;15.90;99.80;;;;;;6230390;22;20441;-88
2021/06/07 02:53:12;;;;;;;23.27;14.10;;;15.90;99.80;;;;;;6225426;23;20443;-87
2021/06/07 02:55:43;;;;;;;24.47;14.40;;;15.90;99.80;;;;;;6201218;23;20432;-87
2021/06/07 02:58:11;;;;;;;23.47;15.23;;;15.90;99.80;;;;;;6214200;23;20424;-88
2021/06/07 03:00:48;;;;;;;19.73;13.33;;;15.90;99.80;;;;;;6165790;22;20437;-88
2021/06/07 03:03:16;;;;;;;19.77;13.53;;;16.00;99.80;;;;;;6226140;22;20461;-87
2021/06/07 03:05:46;;;;;;;22.10;14.60;;;15.90;99.80;;;;;;6221742;23;20437;-87
2021/06/07 03:08:16;;;;;;;24.17;14.23;;;15.90;99.80;;;;;;6237406;23;20767;-88
2021/06/07 03:10:46;;;;;;;21.77;13.50;;;16.00;99.80;;;;;;6235172;22;20440;-89
2021/06/07 03:13:13;;;;;;;23.10;16.03;;;15.90;99.80;;;;;;6228404;23;20996;-87
2021/06/07 03:15:41;;;;;;;23.23;14.93;;;15.90;99.80;;;;;;6187304;23;20440;-87
2021/06/07 03:18:09;;;;;;;21.17;13.63;;;15.90;99.80;;;;;;6169517;22;20547;-87
2021/06/07 03:20:37;;;;;;;28.53;13.90;;;15.90;99.80;;;;;;6220283;22;20440;-86
2021/06/07 03:23:09;;;;;;;23.60;13.77;;;15.90;99.80;;;;;;6236106;23;20451;-89
2021/06/07 03:25:37;;;;;;;23.40;13.60;;;15.90;99.80;;;;;;6227317;23;20436;-87
2021/06/07 03:28:06;;;;;;;24.20;14.53;;;15.80;99.80;;;;;;6219982;23;20513;-88
2021/06/07 03:30:33;;;;;;;29.63;14.47;;;15.80;99.80;;;;;;6224884;22;20494;-88
2021/06/07 03:33:01;;;;;;;26.23;14.90;;;15.80;99.80;;;;;;6230350;23;20764;-87
2021/06/07 03:35:30;;;;;;;21.70;15.13;;;15.80;99.80;;;;;;6233638;23;20838;-87
2021/06/07 03:37:57;;;;;;;26.37;16.10;;;15.80;99.80;;;;;;6235396;23;20442;-88
2021/06/07 03:40:28;;;;;;;22.40;14.37;;;15.80;99.80;;;;;;6234755;22;20436;-87
2021/06/07 03:42:56;;;;;;;23.67;15.07;;;15.80;99.80;;;;;;6237396;23;20435;-87
2021/06/07 03:45:24;;;;;;;20.90;13.33;;;15.80;99.80;;;;;;6231222;23;20440;-87
2021/06/07 03:47:51;;;;;;;24.17;16.40;;;15.80;99.80;;;;;;6220354;23;20465;-87
2021/06/07 03:50:21;;;;;;;29.17;14.40;;;15.80;99.80;;;;;;6230144;22;20440;-86
2021/06/07 03:52:49;;;;;;;24.37;15.13;;;15.80;99.80;;;;;;6236224;23;20438;-87
2021/06/07 03:55:19;;;;;;;21.43;14.37;;;15.80;99.80;;;;;;6230727;23;20443;-87
2021/06/07 03:57:48;;;;;;;20.97;13.40;;;15.90;99.80;;;;;;6229111;23;20435;-87
2021/06/07 04:00:18;;;;;;;24.70;15.00;;;15.90;99.80;;;;;;6197104;23;20447;-87
2021/06/07 04:02:47;;;;;;;24.83;15.63;;;15.80;99.80;;;;;;6192328;22;20440;-87
2021/06/07 04:05:15;;;;;;;24.17;15.13;;;15.80;99.80;;;;;;6194309;23;20442;-87
2021/06/07 04:07:43;;;;;;;22.50;13.67;;;15.80;99.80;;;;;;6229570;23;20432;-88
2021/06/07 04:10:15;;;;;;;26.20;16.20;;;15.80;99.80;;;;;;6233759;22;20512;-88
2021/06/07 04:12:46;;;;;;;23.20;14.67;;;15.80;99.80;;;;;;6234206;23;20435;-89
2021/06/07 04:15:17;;;;;;;23.83;15.07;;;15.80;99.80;;;;;;6232858;23;20486;-89
2021/06/07 04:17:45;;;;;;;22.97;14.83;;;15.90;99.80;;;;;;6216547;23;20499;-88
2021/06/07 04:20:16;;;;;;;20.93;14.33;;;15.80;99.80;;;;;;6221644;22;20441;-88
2021/06/07 04:22:45;;;;;;;24.67;15.03;;;15.90;99.80;;;;;;6234900;23;20432;-88
2021/06/07 04:25:13;;;;;;;21.30;14.10;;;15.80;99.80;;;;;;6234120;23;20443;-88
2021/06/07 04:27:42;;;;;;;25.93;14.73;;;15.80;99.80;;;;;;6215814;23;20433;-88
2021/06/07 04:30:12;;;;;;;22.47;13.57;;;15.80;99.80;;;;;;6225497;22;20756;-89
2021/06/07 04:32:41;;;;;;;25.03;15.53;;;15.80;99.80;;;;;;6226129;23;20443;-88
2021/06/07 04:35:11;;;;;;;25.60;14.63;;;15.90;99.80;;;;;;6224701;23;20790;-89
2021/06/07 04:37:42;;;;;;;21.00;14.80;;;15.90;99.80;;;;;;6197987;23;20650;-87
2021/06/07 04:40:11;;;;;;;27.20;15.43;;;15.80;99.80;;;;;;6229152;22;20752;-87
2021/06/07 04:42:39;;;;;;;25.77;15.07;;;15.90;99.80;;;;;;6218044;23;21012;-88
2021/06/07 04:45:08;;;;;;;27.27;15.50;;;15.90;99.80;;;;;;6229705;23;20445;-87
2021/06/07 04:47:36;;;;;;;25.50;16.80;;;15.90;99.80;;;;;;6212027;23;20946;-88
2021/06/07 04:50:08;;;;;;;22.23;16.10;;;15.90;99.80;;;;;;6226885;22;20436;-88
2021/06/07 04:52:56;;;;;;;27.70;16.03;;;15.90;99.80;;;;;;6237786;23;20439;-83
2021/06/07 04:55:27;;;;;;;27.30;15.80;;;15.90;99.80;;;;;;6236729;23;20484;-83
2021/06/07 04:57:54;;;;;;;26.93;14.80;;;15.90;99.80;;;;;;6234820;23;20427;-82
2021/06/07 05:00:23;;;;;;;24.93;15.13;;;15.90;99.80;;;;;;6186426;23;20448;-83
2021/06/07 05:02:52;;;;;;;26.03;16.20;;;15.90;99.80;;;;;;6197435;22;20440;-82
2021/06/07 05:05:21;;;;;;;28.57;16.73;;;15.90;99.80;;;;;;6199109;23;20920;-82
2021/06/07 05:07:49;;;;;;;29.27;18.70;;;15.80;99.80;;;;;;6226914;23;20446;-82
2021/06/07 05:10:16;;;;;;;31.40;17.67;;;15.80;99.80;;;;;;6222981;22;21310;-82
2021/06/07 05:12:44;;;;;;;25.63;15.30;;;15.80;99.80;;;;;;6225774;23;20437;-83
2021/06/07 05:15:13;;;;;;;29.60;16.67;;;15.80;99.80;;;;;;6225783;23;20948;-82
2021/06/07 05:17:41;;;;;;;30.83;16.37;;;15.80;99.80;;;;;;6226823;23;20436;-81
2021/06/07 05:20:12;;;;;;;34.10;17.40;;;15.80;99.80;;;;;;6230050;22;20435;-82
2021/06/07 05:22:42;;;;;;;35.57;16.27;;;15.80;99.80;;;;;;6234306;23;20437;-82
2021/06/07 05:25:11;;;;;;;24.90;15.50;;;15.80;99.80;;;;;;6235011;23;20441;-82
2021/06/07 05:27:38;;;;;;;39.23;20.90;;;15.80;99.80;;;;;;6234621;23;20703;-81
2021/06/07 05:30:07;;;;;;;33.83;19.67;;;15.70;99.80;;;;;;6225745;22;20470;-81
2021/06/07 05:32:36;;;;;;;31.87;17.70;;;15.70;99.80;;;;;;6221655;23;20423;-89
2021/06/07 05:35:05;;;;;;;34.20;18.23;;;15.70;99.80;;;;;;6212756;23;20436;-88
2021/06/07 05:37:35;;;;;;;28.50;17.37;;;15.70;99.80;;;;;;6213851;23;20446;-87
2021/06/07 05:40:06;;;;;;;31.60;19.17;;;15.60;99.80;;;;;;6234157;22;20931;-88
2021/06/07 05:42:34;;;;;;;33.97;20.80;;;15.60;99.80;;;;;;6220768;23;20429;-88
2021/06/07 05:45:02;;;;;;;30.50;17.93;;;15.60;99.80;;;;;;6229507;23;20991;-88
2021/06/07 05:47:29;;;;;;;34.53;18.77;;;15.60;99.80;;;;;;6217814;23;20479;-87
2021/06/07 05:49:57;;;;;;;40.13;19.23;;;15.60;99.80;;;;;;6199224;23;20432;-88
2021/06/07 05:52:25;;;;;;;44.10;19.27;;;15.60;99.80;;;;;;6227283;23;20431;-87
2021/06/07 05:54:52;;;;;;;34.40;18.43;;;15.60;99.80;;;;;;6236490;23;20431;-88
2021/06/07 05:57:21;;;;;;;41.20;19.37;;;15.60;99.80;;;;;;6238844;23;20506;-88
2021/06/07 05:59:49;;;;;;;42.10;18.20;;;15.60;99.80;;;;;;6235496;22;21168;-88
2021/06/07 06:02:17;;;;;;;33.80;17.27;;;15.60;99.80;;;;;;6227702;23;20428;-87
2021/06/07 06:04:44;;;;;;;34.87;18.83;;;15.60;99.80;;;;;;6227772;23;20442;-88
2021/06/07 06:07:12;;;;;;;32.47;17.40;;;15.70;99.80;;;;;;6230054;23;20441;-88
2021/06/07 06:09:39;;;;;;;32.70;16.47;;;15.70;99.80;;;;;;6232760;22;20444;-88
2021/06/07 06:12:08;;;;;;;28.93;17.20;;;15.70;99.80;;;;;;6221027;23;20436;-86
2021/06/07 06:14:37;;;;;;;29.27;17.50;;;15.70;99.80;;;;;;6224096;23;20427;-86
2021/06/07 06:17:06;;;;;;;29.60;18.00;;;15.70;99.80;;;;;;6225449;23;20442;-88
2021/06/07 06:19:33;;;;;;;35.93;18.13;;;15.70;99.80;;;;;;6231892;22;20806;-88
2021/06/07 06:22:04;;;;;;;30.00;17.57;;;15.70;99.80;;;;;;6230147;23;20756;-87
2021/06/07 06:24:32;;;;;;;29.30;17.20;;;15.70;99.80;;;;;;6223477;23;20436;-89
2021/06/07 06:27:00;;;;;;;32.50;17.90;;;15.70;99.80;;;;;;6227442;23;20494;-88
2021/06/07 06:29:28;;;;;;;32.80;18.67;;;15.70;99.80;;;;;;6227443;23;20430;-89
2021/06/07 06:31:56;;;;;;;39.83;18.73;;;15.60;99.80;;;;;;6229745;22;20437;-88
2021/06/07 06:34:25;;;;;;;31.73;19.13;;;15.60;99.80;;;;;;6225547;23;20461;-89
2021/06/07 06:36:53;;;;;;;41.77;19.80;;;15.60;99.80;;;;;;6196868;23;20437;-87
2021/06/07 06:39:21;;;;;;;33.00;19.23;;;15.60;99.80;;;;;;6239302;23;20469;-88
2021/06/07 06:41:48;;;;;;;40.27;21.20;;;15.60;99.80;;;;;;6237948;22;20937;-87
2021/06/07 06:44:16;;;;;;;33.30;18.33;;;15.60;99.80;;;;;;6222348;23;20791;-88
2021/06/07 06:46:43;;;;;;;39.40;17.80;;;15.60;99.80;;;;;;6233129;23;20433;-88
2021/06/07 06:49:12;;;;;;;37.00;20.10;;;15.60;99.80;;;;;;6227752;23;20951;-88
2021/06/07 06:51:40;;;;;;;34.53;18.50;;;15.70;99.80;;;;;;6235303;22;20526;-87
2021/06/07 06:54:08;;;;;;;33.77;19.57;;;15.70;99.80;;;;;;6229609;23;20907;-87
2021/06/07 06:56:36;;;;;;;32.70;17.80;;;15.70;99.80;;;;;;6232333;23;20433;-88
2021/06/07 06:59:03;;;;;;;34.50;18.53;;;15.80;99.80;;;;;;6214299;23;20443;-88
2021/06/07 07:01:31;;;;;;;38.13;19.60;;;15.80;99.80;;;;;;6194644;22;20441;-88
2021/06/07 07:03:58;;;;;;;34.80;19.97;;;15.80;99.80;;;;;;6222944;23;20780;-88
2021/06/07 07:06:27;;;;;;;32.50;18.63;;;15.80;99.80;;;;;;6235790;23;20799;-87
2021/06/07 07:08:55;;;;;;;34.60;20.90;;;15.90;99.80;;;;;;6239384;23;20436;-87
2021/06/07 07:11:22;;;;;;;40.50;18.50;;;15.90;99.80;;;;;;6240078;22;21092;-88
2021/06/07 07:13:51;;;;;;;36.83;20.60;;;15.90;99.80;;;;;;6229993;23;20436;-88
2021/06/07 07:16:19;;;;;;;34.70;20.10;;;15.90;99.80;;;;;;6227528;23;20778;-88
2021/06/07 07:18:47;;;;;;;34.53;21.30;;;16.00;99.80;;;;;;6233046;23;20982;-88
2021/06/07 07:21:14;;;;;;;41.43;21.57;;;16.10;99.80;;;;;;6230131;22;20449;-87
2021/06/07 07:23:43;;;;;;;31.23;18.00;;;16.10;99.80;;;;;;6237653;23;20987;-88
2021/06/07 07:26:10;;;;;;;32.83;18.53;;;16.10;99.80;;;;;;6230639;23;20756;-88
2021/06/07 07:28:38;;;;;;;36.83;19.97;;;16.10;99.80;;;;;;6197866;22;20536;-88
2021/06/07 07:31:05;;;;;;;39.27;20.27;;;16.20;99.80;;;;;;6199003;22;20511;-88
2021/06/07 07:33:38;;;;;;;36.73;19.87;;;16.20;99.80;;;;;;6187034;22;20428;-88
2021/06/07 07:36:10;;;;;;;34.87;18.70;;;16.20;99.80;;;;;;6205259;22;20437;-88
2021/06/07 07:38:39;;;;;;;35.17;18.50;;;16.20;99.80;;;;;;6239441;23;20506;-87
2021/06/07 07:41:09;;;;;;;32.93;19.87;;;16.20;99.80;;;;;;6235380;22;20534;-87
2021/06/07 07:43:37;;;;;;;34.43;20.37;;;16.20;99.80;;;;;;6239153;23;20437;-87
2021/06/07 07:46:05;;;;;;;28.77;18.00;;;16.20;99.80;;;;;;6234203;23;20963;-87
2021/06/07 07:48:33;;;;;;;30.73;18.13;;;16.10;99.80;;;;;;6222838;23;20470;-88
2021/06/07 07:51:01;;;;;;;30.60;18.63;;;16.10;99.80;;;;;;6235245;22;20439;-88
2021/06/07 07:53:28;;;;;;;35.70;19.60;;;16.10;99.80;;;;;;6240038;23;21115;-88
2021/06/07 07:55:56;;;;;;;32.53;18.80;;;16.10;99.80;;;;;;6235189;23;21209;-87
2021/06/07 07:58:25;;;;;;;34.40;20.33;;;16.10;99.80;;;;;;6230745;23;20439;-88
2021/06/07 08:00:53;;;;;;;31.30;18.60;;;16.00;99.80;;;;;;6169368;22;20512;-88
2021/06/07 08:03:21;;;;;;;34.00;19.00;;;16.00;99.80;;;;;;6227630;22;20481;-88
2021/06/07 08:05:48;;;;;;;35.37;19.93;;;16.00;99.80;;;;;;6229253;23;20436;-87
2021/06/07 08:08:16;;;;;;;35.93;20.53;;;16.00;99.80;;;;;;6222153;23;20527;-87
2021/06/07 08:10:44;;;;;;;35.87;19.50;;;16.00;99.80;;;;;;6231641;22;20443;-88
2021/06/07 08:13:11;;;;;;;36.70;19.63;;;16.00;99.80;;;;;;6227385;23;20442;-88
2021/06/07 08:15:40;;;;;;;33.20;19.53;;;16.00;99.80;;;;;;6226523;23;20437;-88
2021/06/07 08:18:08;;;;;;;38.00;20.87;;;16.10;99.80;;;;;;6229402;23;20994;-87
2021/06/07 08:20:35;;;;;;;36.00;19.90;;;16.10;99.80;;;;;;6224988;22;20455;-88
2021/06/07 08:23:03;;;;;;;32.33;18.53;;;16.10;99.80;;;;;;6237004;23;20526;-88
2021/06/07 08:25:31;;;;;;;35.63;18.83;;;16.20;99.80;;;;;;6238272;23;21083;-87
2021/06/07 08:27:59;;;;;;;35.00;20.20;;;16.20;99.80;;;;;;6230486;23;20427;-88
2021/06/07 08:30:28;;;;;;;35.83;21.03;;;16.10;99.80;;;;;;6223936;22;20445;-87
2021/06/07 08:32:57;;;;;;;36.03;18.67;;;16.20;99.80;;;;;;6209385;23;20444;-88
2021/06/07 08:35:26;;;;;;;39.10;20.57;;;16.20;99.80;;;;;;6213183;23;20439;-87
2021/06/07 08:37:54;;;;;;;38.43;22.07;;;16.20;99.80;;;;;;6232650;23;20440;-87
2021/06/07 08:40:22;;;;;;;35.37;20.30;;;16.30;99.80;;;;;;6230297;22;20831;-88
2021/06/07 08:42:50;;;;;;;38.43;20.93;;;16.30;99.80;;;;;;6235835;23;20466;-87
2021/06/07 08:45:19;;;;;;;40.13;22.00;;;16.30;99.80;;;;;;6228284;23;20887;-87
2021/06/07 08:47:49;;;;;;;37.83;21.37;;;16.30;99.80;;;;;;6230921;23;20461;-88
2021/06/07 08:50:20;;;;;;;35.23;20.87;;;16.30;99.80;;;;;;6231902;22;20439;-88
2021/06/07 08:52:48;;;;;;;33.27;19.40;;;16.40;99.80;;;;;;6237112;23;20775;-87
2021/06/07 08:55:18;;;;;;;40.73;19.47;;;16.40;99.80;;;;;;6237102;23;20497;-88
2021/06/07 08:57:49;;;;;;;32.97;20.30;;;16.50;99.80;;;;;;6236998;23;20527;-89
2021/06/07 09:00:19;;;;;;;30.87;19.27;;;16.60;99.80;;;;;;6187411;23;20447;-88
2021/06/07 09:02:47;;;;;;;36.30;20.43;;;16.60;99.80;;;;;;6220089;22;20491;-88
2021/06/07 09:05:18;;;;;;;37.67;19.73;;;16.60;99.80;;;;;;6230561;23;20439;-88
2021/06/07 09:07:57;;;;;;;35.40;20.80;;;16.70;99.80;;;;;;6236742;23;20443;-88
2021/06/07 09:10:26;;;;;;;33.67;20.27;;;16.80;99.80;;;;;;6226754;22;20461;-87
2021/06/07 09:12:58;;;;;;;31.40;19.40;;;16.80;99.80;;;;;;6186718;23;20487;-87
2021/06/07 09:15:30;;;;;;;32.90;21.33;;;16.90;99.80;;;;;;6189115;22;20508;-87
2021/06/07 09:17:58;;;;;;;33.90;20.43;;;17.00;99.80;;;;;;6201469;22;20862;-87
2021/06/07 09:20:29;;;;;;;33.93;19.57;;;17.10;99.80;;;;;;6184165;22;20440;-88
2021/06/07 09:22:59;;;;;;;26.67;16.97;;;17.20;99.80;;;;;;6233730;23;20474;-88
2021/06/07 09:25:30;;;;;;;32.33;19.07;;;17.30;99.80;;;;;;6235529;23;20441;-87
2021/06/07 09:28:07;;;;;;;27.13;17.60;;;17.50;99.80;;;;;;6237862;23;20513;-89
2021/06/07 09:30:36;;;;;;;34.27;20.93;;;17.60;99.80;;;;;;6229146;22;20446;-87
2021/06/07 09:33:19;;;;;;;34.93;19.70;;;17.60;99.80;;;;;;6225005;23;20425;-88
2021/06/07 09:36:07;;;;;;;27.63;18.33;;;17.70;99.80;;;;;;6231741;23;21029;-87
2021/06/07 09:38:50;;;;;;;25.90;17.07;;;17.80;99.80;;;;;;6235612;23;20432;-88
2021/06/07 09:41:18;;;;;;;28.27;18.53;;;17.90;99.80;;;;;;6231185;22;20435;-88
2021/06/07 09:43:47;;;;;;;29.23;18.73;;;17.90;99.80;;;;;;6225640;23;20826;-88
2021/06/07 09:46:15;;;;;;;27.70;17.40;;;17.90;99.80;;;;;;6232195;23;20505;-88
2021/06/07 09:48:43;;;;;;;31.07;19.37;;;17.80;99.80;;;;;;6232711;23;20437;-89
2021/06/07 09:51:18;;;;;;;28.73;18.27;;;17.80;99.80;;;;;;6221226;22;20437;-88
2021/06/07 09:53:52;;;;;;;31.33;18.67;;;17.90;99.80;;;;;;6228094;23;20490;-88
2021/06/07 09:56:20;;;;;;;28.87;16.80;;;17.90;99.80;;;;;;6230210;23;20573;-87
2021/06/07 09:58:48;;;;;;;28.20;17.60;;;17.90;99.80;;;;;;6211902;23;20419;-88
2021/06/07 10:01:18;;;;;;;32.87;18.40;;;18.10;99.80;;;;;;6185645;22;20446;-90
2021/06/07 10:03:53;;;;;;;26.23;16.20;;;18.10;99.80;;;;;;6213549;22;20439;-88
2021/06/07 10:06:29;;;;;;;29.20;17.73;;;18.20;99.80;;;;;;6233953;23;20673;-88
2021/06/07 10:08:59;;;;;;;34.13;17.27;;;18.30;99.80;;;;;;6238843;23;20502;-90
2021/06/07 10:11:29;;;;;;;24.70;17.70;;;18.40;99.80;;;;;;6236039;22;20474;-87
2021/06/07 10:14:09;;;;;;;27.57;17.73;;;18.50;99.80;;;;;;6224283;23;20939;-87
2021/06/07 10:16:37;;;;;;;29.13;18.03;;;18.80;99.80;;;;;;6219501;23;20946;-87
2021/06/07 10:19:07;;;;;;;21.77;16.40;;;19.10;99.80;;;;;;6220499;23;20722;-87
2021/06/07 10:21:36;;;;;;;23.00;16.07;;;19.10;99.80;;;;;;6224831;22;20468;-88
2021/06/07 10:24:04;;;;;;;27.03;17.47;;;19.30;99.80;;;;;;6224167;23;20441;-88
2021/06/07 10:26:32;;;;;;;22.90;15.30;;;19.50;99.80;;;;;;6225047;23;20442;-88
2021/06/07 10:28:59;;;;;;;23.97;15.90;;;19.50;99.80;;;;;;6225157;23;20464;-88
2021/06/07 10:31:27;;;;;;;27.47;15.40;;;19.60;99.80;;;;;;6231046;22;20773;-88
2021/06/07 10:33:58;;;;;;;21.57;16.80;;;19.80;99.80;;;;;;6231105;23;20442;-88
2021/06/07 10:36:47;;;;;;;31.67;16.50;;;19.70;99.80;;;;;;6232315;23;20434;-80
2021/06/07 10:39:23;;;;;;;21.20;15.77;;;19.80;99.80;;;;;;6237594;23;20434;-80
2021/06/07 10:42:14;;;;;;;23.90;16.27;;;20.10;99.80;;;;;;6234224;22;20430;-80
2021/06/07 10:44:44;;;;;;;21.70;14.50;;;20.30;99.80;;;;;;6198383;23;20493;-87
2021/06/07 10:47:13;;;;;;;20.60;15.60;;;20.50;99.80;;;;;;6180202;23;20948;-89
2021/06/07 10:49:45;;;;;;;18.90;13.93;;;20.50;99.80;;;;;;6196958;23;20528;-89
2021/06/07 10:52:18;;;;;;;22.20;14.47;;;20.30;99.80;;;;;;6208679;23;21022;-89
2021/06/07 10:54:54;;;;;;;21.90;15.27;;;20.10;99.80;;;;;;6207284;23;20436;-87
2021/06/07 10:57:29;;;;;;;20.53;14.03;;;20.40;99.80;;;;;;6182908;23;20943;-87
2021/06/07 10:59:59;;;;;;;23.10;14.00;;;20.60;99.80;;;;;;6181329;22;20449;-87
2021/06/07 11:02:32;;;;;;;21.90;15.20;;;20.40;99.80;;;;;;6199564;22;20510;-88
2021/06/07 11:05:03;;;;;;;22.07;16.03;;;20.50;99.80;;;;;;6191982;23;20435;-92
2021/06/07 11:07:34;;;;;;;19.27;14.97;;;20.70;99.80;;;;;;6234374;22;20530;-87
2021/06/07 11:10:14;;;;;;;22.50;14.33;;;20.90;99.80;;;;;;6237987;22;20438;-88
2021/06/07 11:12:43;;;;;;;17.00;12.10;;;21.10;99.80;;;;;;6197943;23;20841;-89
2021/06/07 11:15:13;;;;;;;23.23;13.80;;;21.40;99.80;;;;;;6225036;23;20916;-88
2021/06/07 11:17:41;;;;;;;18.20;13.73;;;21.60;99.80;;;;;;6217004;23;20767;-88
2021/06/07 11:20:12;;;;;;;15.70;12.27;;;21.60;99.80;;;;;;6148931;23;20504;-92
2021/06/07 11:23:10;;;;;;;17.47;13.60;;;21.70;99.80;;;;;;6230645;23;20500;-88
2021/06/07 11:25:51;;;;;;;18.53;13.77;;;21.70;99.80;;;;;;6207493;23;20439;-89
2021/06/07 11:28:52;;;;;;;18.60;12.93;;;21.80;99.80;;;;;;6182426;23;20508;-91
2021/06/07 11:31:52;;;;;;;18.13;12.83;;;21.80;99.80;;;;;;6189332;22;20547;-88
2021/06/07 11:34:39;;;;;;;16.27;13.43;;;21.90;99.80;;;;;;6203066;23;20430;-88
2021/06/07 11:37:08;;;;;;;17.63;13.03;;;21.90;99.80;;;;;;6190332;23;20494;-90
2021/06/07 11:39:52;;;;;;;17.03;12.70;;;21.80;99.80;;;;;;6208829;22;20415;-88
2021/06/07 11:42:24;;;;;;;18.80;13.00;;;21.60;99.80;;;;;;6188711;23;20431;-89
2021/06/07 11:45:05;;;;;;;15.47;12.33;;;21.60;99.80;;;;;;6199022;22;20781;-89
2021/06/07 11:47:52;;;;;;;20.10;14.00;;;21.40;99.80;;;;;;6212482;22;20502;-88
2021/06/07 11:50:29;;;;;;;17.80;13.70;;;21.30;99.80;;;;;;6193166;22;20435;-88
2021/06/07 11:52:57;;;;;;;15.57;13.00;;;21.00;99.80;;;;;;6205582;23;20435;-89
2021/06/07 11:55:30;;;;;;;23.87;14.67;;;20.90;99.80;;;;;;6207186;23;20510;-88
2021/06/07 11:58:22;;;;;;;16.20;12.60;;;20.70;99.80;;;;;;6155906;23;20420;-89
2021/06/07 12:00:52;;;;;;;17.77;12.80;;;20.70;99.80;;;;;;6159777;23;20531;-88
2021/06/07 12:03:21;;;;;;;16.23;13.17;;;20.80;99.80;;;;;;6162120;23;20436;-89
2021/06/07 12:05:50;;;;;;;18.33;12.80;;;20.70;99.80;;;;;;6143502;23;20461;-89
2021/06/07 12:08:20;;;;;;;15.33;11.80;;;20.70;99.80;;;;;;6154222;23;20516;-88
2021/06/07 12:10:54;;;;;;;15.40;11.10;;;20.90;99.80;;;;;;6166406;23;20770;-88
2021/06/07 12:13:27;;;;;;;14.73;12.30;;;21.20;99.80;;;;;;6151710;23;20444;-88
2021/06/07 12:16:17;;;;;;;18.23;13.60;;;21.40;99.80;;;;;;6152759;23;20499;-88
2021/06/07 12:19:09;;;;;;;21.53;11.80;;;21.60;99.80;;;;;;6149386;22;20432;-87
2021/06/07 12:21:37;;;;;;;16.40;13.57;;;21.80;99.80;;;;;;6204084;23;20479;-88
2021/06/07 12:24:08;;;;;;;13.87;11.57;;;22.00;99.80;;;;;;6208294;23;20944;-90
2021/06/07 12:29:28;;;;;;;12.80;11.37;;;22.00;99.80;;;;;;6184247;23;21016;-90
2021/06/07 12:32:12;;;;;;;15.53;11.60;;;22.10;99.80;;;;;;6168419;23;20552;-89
2021/06/07 12:35:10;;;;;;;15.27;11.57;;;22.10;99.80;;;;;;6184572;23;20459;-89
2021/06/07 12:37:41;;;;;;;13.10;10.80;;;22.10;99.80;;;;;;6206559;22;20432;-90
2021/06/07 12:40:17;;;;;;;15.93;12.43;;;22.00;99.80;;;;;;6182983;22;20435;-90
2021/06/07 12:42:49;;;;;;;13.63;11.73;;;21.80;99.80;;;;;;6192569;22;20435;-88
2021/06/07 12:45:20;;;;;;;14.57;11.57;;;21.80;99.80;;;;;;6183727;22;20528;-90
2021/06/07 12:47:47;;;;;;;13.70;11.40;;;21.70;99.80;;;;;;6166800;22;20462;-89